sensor_id;sensor_type;location;lat;lon;timestamp;P1;durP1;ratioP1;P2;durP2;ratioP2
77872;SDS011;67068;52.116;4.440;2024-03-06T00:01:48;20.43;;;10.77;;
77872;SDS011;67068;52.116;4.440;2024-03-06T00:04:13;22.50;;;11.50;;
77872;SDS011;67068;52.116;4.440;2024-03-06T00:06:38;20.37;;;10.57;;
77872;SDS011;67068;52.116;4.440;2024-03-06T00:09:04;21.17;;;10.40;;
77872;SDS011;67068;52.116;4.440;2024-03-06T00:11:29;20.33;;;10.63;;
77872;SDS011;67068;52.116;4.440;2024-03-06T00:13:55;20.90;;;10.50;;
77872;SDS011;67068;52.116;4.440;2024-03-06T00:16:20;21.30;;;10.73;;
77872;SDS011;67068;52.116;4.440;2024-03-06T00:18:45;23.07;;;10.73;;
77872;SDS011;67068;52.116;4.440;2024-03-06T00:21:10;20.95;;;10.68;;
77872;SDS011;67068;52.116;4.440;2024-03-06T00:23:36;21.48;;;11.07;;
77872;SDS011;67068;52.116;4.440;2024-03-06T00:26:02;20.63;;;11.18;;
77872;SDS011;67068;52.116;4.440;2024-03-06T00:28:27;22.65;;;10.43;;
77872;SDS011;67068;52.116;4.440;2024-03-06T00:30:53;22.55;;;11.55;;
77872;SDS011;67068;52.116;4.440;2024-03-06T00:33:18;23.00;;;12.47;;
77872;SDS011;67068;52.116;4.440;2024-03-06T00:35:43;25.93;;;12.90;;
77872;SDS011;67068;52.116;4.440;2024-03-06T00:38:08;21.37;;;11.13;;
77872;SDS011;67068;52.116;4.440;2024-03-06T00:40:34;23.10;;;11.97;;
77872;SDS011;67068;52.116;4.440;2024-03-06T00:42:59;20.63;;;12.23;;
77872;SDS011;67068;52.116;4.440;2024-03-06T00:45:24;19.93;;;11.53;;
77872;SDS011;67068;52.116;4.440;2024-03-06T00:47:49;20.93;;;11.80;;
77872;SDS011;67068;52.116;4.440;2024-03-06T00:50:15;23.17;;;11.73;;
77872;SDS011;67068;52.116;4.440;2024-03-06T00:52:42;22.90;;;11.73;;
77872;SDS011;67068;52.116;4.440;2024-03-06T00:55:07;21.67;;;11.55;;
77872;SDS011;67068;52.116;4.440;2024-03-06T00:57:33;21.50;;;11.90;;
77872;SDS011;67068;52.116;4.440;2024-03-06T00:59:58;21.67;;;11.50;;
77872;SDS011;67068;52.116;4.440;2024-03-06T01:02:23;23.03;;;12.57;;
77872;SDS011;67068;52.116;4.440;2024-03-06T01:04:51;23.60;;;12.70;;
77872;SDS011;67068;52.116;4.440;2024-03-06T01:07:16;20.60;;;11.52;;
77872;SDS011;67068;52.116;4.440;2024-03-06T01:09:41;22.47;;;12.77;;
77872;SDS011;67068;52.116;4.440;2024-03-06T01:12:07;22.30;;;11.73;;
77872;SDS011;67068;52.116;4.440;2024-03-06T01:14:32;24.63;;;13.97;;
77872;SDS011;67068;52.116;4.440;2024-03-06T01:16:58;22.83;;;12.47;;
77872;SDS011;67068;52.116;4.440;2024-03-06T01:19:23;25.40;;;12.02;;
77872;SDS011;67068;52.116;4.440;2024-03-06T01:21:48;22.13;;;11.77;;
77872;SDS011;67068;52.116;4.440;2024-03-06T01:24:14;20.90;;;12.27;;
77872;SDS011;67068;52.116;4.440;2024-03-06T01:26:39;23.35;;;11.73;;
77872;SDS011;67068;52.116;4.440;2024-03-06T01:29:05;20.55;;;11.27;;
77872;SDS011;67068;52.116;4.440;2024-03-06T01:31:31;23.23;;;13.83;;
77872;SDS011;67068;52.116;4.440;2024-03-06T01:33:56;21.95;;;12.02;;
77872;SDS011;67068;52.116;4.440;2024-03-06T01:36:21;22.63;;;11.93;;
77872;SDS011;67068;52.116;4.440;2024-03-06T01:38:46;20.40;;;11.37;;
77872;SDS011;67068;52.116;4.440;2024-03-06T01:41:12;22.63;;;11.90;;
77872;SDS011;67068;52.116;4.440;2024-03-06T01:43:37;25.60;;;12.73;;
77872;SDS011;67068;52.116;4.440;2024-03-06T01:46:06;21.40;;;12.20;;
77872;SDS011;67068;52.116;4.440;2024-03-06T01:48:31;22.17;;;13.13;;
77872;SDS011;67068;52.116;4.440;2024-03-06T01:50:57;22.10;;;13.53;;
77872;SDS011;67068;52.116;4.440;2024-03-06T01:53:22;22.77;;;11.20;;
77872;SDS011;67068;52.116;4.440;2024-03-06T01:55:49;21.20;;;11.98;;
77872;SDS011;67068;52.116;4.440;2024-03-06T01:58:15;21.23;;;11.95;;
77872;SDS011;67068;52.116;4.440;2024-03-06T02:00:40;20.67;;;11.77;;
77872;SDS011;67068;52.116;4.440;2024-03-06T02:03:06;22.67;;;12.50;;
77872;SDS011;67068;52.116;4.440;2024-03-06T02:05:31;19.17;;;11.03;;
77872;SDS011;67068;52.116;4.440;2024-03-06T02:07:57;20.83;;;12.07;;
77872;SDS011;67068;52.116;4.440;2024-03-06T02:10:23;23.92;;;12.63;;
77872;SDS011;67068;52.116;4.440;2024-03-06T02:12:48;22.50;;;13.20;;
77872;SDS011;67068;52.116;4.440;2024-03-06T02:15:14;22.58;;;12.25;;
77872;SDS011;67068;52.116;4.440;2024-03-06T02:17:40;20.85;;;13.45;;
77872;SDS011;67068;52.116;4.440;2024-03-06T02:20:05;21.00;;;11.48;;
77872;SDS011;67068;52.116;4.440;2024-03-06T02:22:32;19.98;;;12.60;;
77872;SDS011;67068;52.116;4.440;2024-03-06T02:24:57;20.63;;;11.93;;
77872;SDS011;67068;52.116;4.440;2024-03-06T02:27:22;23.10;;;12.82;;
77872;SDS011;67068;52.116;4.440;2024-03-06T02:29:47;19.83;;;12.37;;
77872;SDS011;67068;52.116;4.440;2024-03-06T02:32:13;21.87;;;11.90;;
77872;SDS011;67068;52.116;4.440;2024-03-06T02:34:39;20.17;;;12.05;;
77872;SDS011;67068;52.116;4.440;2024-03-06T02:37:05;21.15;;;12.45;;
77872;SDS011;67068;52.116;4.440;2024-03-06T02:39:30;22.40;;;12.60;;
77872;SDS011;67068;52.116;4.440;2024-03-06T02:41:56;20.33;;;11.83;;
77872;SDS011;67068;52.116;4.440;2024-03-06T02:44:21;19.88;;;12.50;;
77872;SDS011;67068;52.116;4.440;2024-03-06T02:46:47;19.83;;;11.60;;
77872;SDS011;67068;52.116;4.440;2024-03-06T02:49:13;20.70;;;11.57;;
77872;SDS011;67068;52.116;4.440;2024-03-06T02:51:38;19.43;;;11.23;;
77872;SDS011;67068;52.116;4.440;2024-03-06T02:54:04;20.47;;;12.57;;
77872;SDS011;67068;52.116;4.440;2024-03-06T02:56:29;19.97;;;12.57;;
77872;SDS011;67068;52.116;4.440;2024-03-06T02:58:54;18.30;;;10.63;;
77872;SDS011;67068;52.116;4.440;2024-03-06T03:01:20;19.70;;;11.05;;
77872;SDS011;67068;52.116;4.440;2024-03-06T03:03:45;19.52;;;11.43;;
77872;SDS011;67068;52.116;4.440;2024-03-06T03:06:12;20.65;;;13.57;;
77872;SDS011;67068;52.116;4.440;2024-03-06T03:08:37;18.00;;;10.37;;
77872;SDS011;67068;52.116;4.440;2024-03-06T03:11:02;18.23;;;10.30;;
77872;SDS011;67068;52.116;4.440;2024-03-06T03:13:28;20.55;;;12.43;;
77872;SDS011;67068;52.116;4.440;2024-03-06T03:15:53;20.03;;;12.10;;
77872;SDS011;67068;52.116;4.440;2024-03-06T03:18:18;21.17;;;11.53;;
77872;SDS011;67068;52.116;4.440;2024-03-06T03:20:43;22.03;;;12.03;;
77872;SDS011;67068;52.116;4.440;2024-03-06T03:23:09;18.77;;;11.87;;
77872;SDS011;67068;52.116;4.440;2024-03-06T03:25:37;20.25;;;11.15;;
77872;SDS011;67068;52.116;4.440;2024-03-06T03:28:02;19.58;;;11.50;;
77872;SDS011;67068;52.116;4.440;2024-03-06T03:30:27;22.37;;;11.93;;
77872;SDS011;67068;52.116;4.440;2024-03-06T03:32:52;22.97;;;11.50;;
77872;SDS011;67068;52.116;4.440;2024-03-06T03:35:18;18.70;;;11.53;;
77872;SDS011;67068;52.116;4.440;2024-03-06T03:37:45;18.80;;;11.27;;
77872;SDS011;67068;52.116;4.440;2024-03-06T03:40:11;20.47;;;12.80;;
77872;SDS011;67068;52.116;4.440;2024-03-06T03:42:37;20.90;;;13.00;;
77872;SDS011;67068;52.116;4.440;2024-03-06T03:45:02;20.10;;;12.60;;
77872;SDS011;67068;52.116;4.440;2024-03-06T03:47:28;20.73;;;12.70;;
77872;SDS011;67068;52.116;4.440;2024-03-06T03:49:53;20.37;;;13.33;;
77872;SDS011;67068;52.116;4.440;2024-03-06T03:52:18;20.00;;;12.10;;
77872;SDS011;67068;52.116;4.440;2024-03-06T03:54:43;20.47;;;11.73;;
77872;SDS011;67068;52.116;4.440;2024-03-06T03:57:09;21.80;;;12.73;;
77872;SDS011;67068;52.116;4.440;2024-03-06T03:59:34;19.90;;;11.93;;
77872;SDS011;67068;52.116;4.440;2024-03-06T04:02:02;21.80;;;13.00;;
77872;SDS011;67068;52.116;4.440;2024-03-06T04:04:27;20.88;;;12.52;;
77872;SDS011;67068;52.116;4.440;2024-03-06T04:06:54;19.35;;;12.27;;
77872;SDS011;67068;52.116;4.440;2024-03-06T04:09:19;22.63;;;12.87;;
77872;SDS011;67068;52.116;4.440;2024-03-06T04:11:44;19.97;;;10.93;;
77872;SDS011;67068;52.116;4.440;2024-03-06T04:14:09;21.27;;;10.90;;
77872;SDS011;67068;52.116;4.440;2024-03-06T04:16:35;20.20;;;11.93;;
77872;SDS011;67068;52.116;4.440;2024-03-06T04:19:00;21.02;;;11.85;;
77872;SDS011;67068;52.116;4.440;2024-03-06T04:21:26;19.40;;;11.50;;
77872;SDS011;67068;52.116;4.440;2024-03-06T04:23:51;21.67;;;11.07;;
77872;SDS011;67068;52.116;4.440;2024-03-06T04:26:16;22.60;;;12.53;;
77872;SDS011;67068;52.116;4.440;2024-03-06T04:28:42;21.25;;;12.75;;
77872;SDS011;67068;52.116;4.440;2024-03-06T04:31:08;21.70;;;12.77;;
77872;SDS011;67068;52.116;4.440;2024-03-06T04:33:33;20.30;;;13.20;;
77872;SDS011;67068;52.116;4.440;2024-03-06T04:36:00;21.50;;;12.63;;
77872;SDS011;67068;52.116;4.440;2024-03-06T04:38:25;19.60;;;12.52;;
77872;SDS011;67068;52.116;4.440;2024-03-06T04:40:50;19.42;;;11.85;;
77872;SDS011;67068;52.116;4.440;2024-03-06T04:43:15;21.43;;;12.87;;
77872;SDS011;67068;52.116;4.440;2024-03-06T04:45:41;24.77;;;12.73;;
77872;SDS011;67068;52.116;4.440;2024-03-06T04:48:06;21.38;;;13.23;;
77872;SDS011;67068;52.116;4.440;2024-03-06T04:50:32;21.02;;;12.40;;
77872;SDS011;67068;52.116;4.440;2024-03-06T04:52:57;23.80;;;13.35;;
77872;SDS011;67068;52.116;4.440;2024-03-06T04:55:23;21.63;;;12.25;;
77872;SDS011;67068;52.116;4.440;2024-03-06T04:57:50;25.50;;;13.88;;
77872;SDS011;67068;52.116;4.440;2024-03-06T05:00:15;23.10;;;12.85;;
77872;SDS011;67068;52.116;4.440;2024-03-06T05:02:40;21.50;;;12.23;;
77872;SDS011;67068;52.116;4.440;2024-03-06T05:05:07;23.30;;;13.50;;
77872;SDS011;67068;52.116;4.440;2024-03-06T05:07:33;22.73;;;12.60;;
77872;SDS011;67068;52.116;4.440;2024-03-06T05:09:58;22.67;;;12.53;;
77872;SDS011;67068;52.116;4.440;2024-03-06T05:12:24;22.42;;;12.98;;
77872;SDS011;67068;52.116;4.440;2024-03-06T05:14:49;20.95;;;12.45;;
77872;SDS011;67068;52.116;4.440;2024-03-06T05:17:15;21.38;;;12.20;;
77872;SDS011;67068;52.116;4.440;2024-03-06T05:19:40;21.30;;;11.68;;
77872;SDS011;67068;52.116;4.440;2024-03-06T05:22:05;21.87;;;12.63;;
77872;SDS011;67068;52.116;4.440;2024-03-06T05:24:30;21.43;;;12.50;;
77872;SDS011;67068;52.116;4.440;2024-03-06T05:26:56;22.23;;;13.37;;
77872;SDS011;67068;52.116;4.440;2024-03-06T05:29:21;18.80;;;11.73;;
77872;SDS011;67068;52.116;4.440;2024-03-06T05:31:46;21.27;;;12.40;;
77872;SDS011;67068;52.116;4.440;2024-03-06T05:34:11;20.00;;;12.03;;
77872;SDS011;67068;52.116;4.440;2024-03-06T05:36:37;21.87;;;13.43;;
77872;SDS011;67068;52.116;4.440;2024-03-06T05:39:02;20.23;;;12.53;;
77872;SDS011;67068;52.116;4.440;2024-03-06T05:41:37;22.15;;;12.23;;
77872;SDS011;67068;52.116;4.440;2024-03-06T05:44:02;20.83;;;13.23;;
77872;SDS011;67068;52.116;4.440;2024-03-06T05:46:29;21.80;;;12.10;;
77872;SDS011;67068;52.116;4.440;2024-03-06T05:48:54;21.43;;;12.10;;
77872;SDS011;67068;52.116;4.440;2024-03-06T05:51:19;17.27;;;10.23;;
77872;SDS011;67068;52.116;4.440;2024-03-06T05:53:44;22.50;;;13.10;;
77872;SDS011;67068;52.116;4.440;2024-03-06T05:56:10;22.20;;;11.98;;
77872;SDS011;67068;52.116;4.440;2024-03-06T05:58:35;21.80;;;11.87;;
77872;SDS011;67068;52.116;4.440;2024-03-06T06:01:00;21.85;;;12.93;;
77872;SDS011;67068;52.116;4.440;2024-03-06T06:03:26;20.17;;;12.35;;
77872;SDS011;67068;52.116;4.440;2024-03-06T06:05:53;20.10;;;11.93;;
77872;SDS011;67068;52.116;4.440;2024-03-06T06:08:18;21.53;;;11.97;;
77872;SDS011;67068;52.116;4.440;2024-03-06T06:10:43;20.37;;;12.53;;
77872;SDS011;67068;52.116;4.440;2024-03-06T06:13:08;20.30;;;11.10;;
77872;SDS011;67068;52.116;4.440;2024-03-06T06:15:34;23.10;;;13.33;;
77872;SDS011;67068;52.116;4.440;2024-03-06T06:17:59;18.00;;;9.37;;
77872;SDS011;67068;52.116;4.440;2024-03-06T06:20:24;21.02;;;11.45;;
77872;SDS011;67068;52.116;4.440;2024-03-06T06:22:49;19.23;;;10.07;;
77872;SDS011;67068;52.116;4.440;2024-03-06T06:25:15;18.60;;;9.37;;
77872;SDS011;67068;52.116;4.440;2024-03-06T06:27:41;18.73;;;8.65;;
77872;SDS011;67068;52.116;4.440;2024-03-06T06:30:06;18.53;;;9.93;;
77872;SDS011;67068;52.116;4.440;2024-03-06T06:32:36;17.40;;;10.15;;
77872;SDS011;67068;52.116;4.440;2024-03-06T06:35:02;21.92;;;12.88;;
77872;SDS011;67068;52.116;4.440;2024-03-06T06:37:28;22.75;;;12.02;;
77872;SDS011;67068;52.116;4.440;2024-03-06T06:39:54;21.13;;;12.77;;
77872;SDS011;67068;52.116;4.440;2024-03-06T06:42:19;21.87;;;12.73;;
77872;SDS011;67068;52.116;4.440;2024-03-06T06:44:44;22.13;;;13.07;;
77872;SDS011;67068;52.116;4.440;2024-03-06T06:47:09;21.63;;;13.30;;
77872;SDS011;67068;52.116;4.440;2024-03-06T06:49:34;22.53;;;12.23;;
77872;SDS011;67068;52.116;4.440;2024-03-06T06:52:00;21.73;;;12.23;;
77872;SDS011;67068;52.116;4.440;2024-03-06T06:54:25;19.57;;;11.57;;
77872;SDS011;67068;52.116;4.440;2024-03-06T06:56:50;21.23;;;12.73;;
77872;SDS011;67068;52.116;4.440;2024-03-06T06:59:15;18.17;;;11.50;;
77872;SDS011;67068;52.116;4.440;2024-03-06T07:01:40;19.30;;;10.93;;
77872;SDS011;67068;52.116;4.440;2024-03-06T07:04:06;20.70;;;11.85;;
77872;SDS011;67068;52.116;4.440;2024-03-06T07:06:32;21.80;;;11.83;;
77872;SDS011;67068;52.116;4.440;2024-03-06T07:08:57;23.47;;;11.77;;
77872;SDS011;67068;52.116;4.440;2024-03-06T07:11:22;21.63;;;12.07;;
77872;SDS011;67068;52.116;4.440;2024-03-06T07:13:48;20.52;;;12.43;;
77872;SDS011;67068;52.116;4.440;2024-03-06T07:16:13;20.87;;;12.70;;
77872;SDS011;67068;52.116;4.440;2024-03-06T07:18:39;19.45;;;12.20;;
77872;SDS011;67068;52.116;4.440;2024-03-06T07:21:04;18.43;;;11.40;;
77872;SDS011;67068;52.116;4.440;2024-03-06T07:23:30;19.45;;;12.40;;
77872;SDS011;67068;52.116;4.440;2024-03-06T07:25:55;19.40;;;11.43;;
77872;SDS011;67068;52.116;4.440;2024-03-06T07:28:22;19.35;;;10.23;;
77872;SDS011;67068;52.116;4.440;2024-03-06T07:30:47;16.33;;;9.60;;
77872;SDS011;67068;52.116;4.440;2024-03-06T07:33:12;17.93;;;11.10;;
77872;SDS011;67068;52.116;4.440;2024-03-06T07:35:39;18.38;;;10.35;;
77872;SDS011;67068;52.116;4.440;2024-03-06T07:38:04;16.23;;;9.93;;
77872;SDS011;67068;52.116;4.440;2024-03-06T07:40:30;15.88;;;8.98;;
77872;SDS011;67068;52.116;4.440;2024-03-06T07:42:56;15.93;;;9.82;;
77872;SDS011;67068;52.116;4.440;2024-03-06T07:45:21;17.33;;;10.13;;
77872;SDS011;67068;52.116;4.440;2024-03-06T07:47:46;15.67;;;9.63;;
77872;SDS011;67068;52.116;4.440;2024-03-06T07:50:11;14.93;;;9.37;;
77872;SDS011;67068;52.116;4.440;2024-03-06T07:52:37;16.58;;;9.82;;
77872;SDS011;67068;52.116;4.440;2024-03-06T07:55:02;15.73;;;9.87;;
77872;SDS011;67068;52.116;4.440;2024-03-06T07:57:28;17.25;;;10.77;;
77872;SDS011;67068;52.116;4.440;2024-03-06T07:59:53;18.17;;;10.55;;
77872;SDS011;67068;52.116;4.440;2024-03-06T08:02:19;17.73;;;10.90;;
77872;SDS011;67068;52.116;4.440;2024-03-06T08:04:45;16.83;;;9.52;;
77872;SDS011;67068;52.116;4.440;2024-03-06T08:07:12;16.95;;;10.15;;
77872;SDS011;67068;52.116;4.440;2024-03-06T08:09:37;17.90;;;10.97;;
77872;SDS011;67068;52.116;4.440;2024-03-06T08:12:03;17.93;;;11.30;;
77872;SDS011;67068;52.116;4.440;2024-03-06T08:14:28;18.63;;;10.80;;
77872;SDS011;67068;52.116;4.440;2024-03-06T08:16:53;19.60;;;12.37;;
77872;SDS011;67068;52.116;4.440;2024-03-06T08:19:19;19.48;;;11.65;;
77872;SDS011;67068;52.116;4.440;2024-03-06T08:21:44;18.60;;;10.60;;
77872;SDS011;67068;52.116;4.440;2024-03-06T08:24:09;20.53;;;11.63;;
77872;SDS011;67068;52.116;4.440;2024-03-06T08:26:35;18.77;;;12.07;;
77872;SDS011;67068;52.116;4.440;2024-03-06T08:29:01;20.73;;;11.60;;
77872;SDS011;67068;52.116;4.440;2024-03-06T08:31:26;18.33;;;11.13;;
77872;SDS011;67068;52.116;4.440;2024-03-06T08:33:54;19.77;;;12.23;;
77872;SDS011;67068;52.116;4.440;2024-03-06T08:36:19;19.40;;;11.63;;
77872;SDS011;67068;52.116;4.440;2024-03-06T08:38:45;21.00;;;11.98;;
77872;SDS011;67068;52.116;4.440;2024-03-06T08:41:10;19.50;;;11.63;;
77872;SDS011;67068;52.116;4.440;2024-03-06T08:43:36;21.37;;;13.30;;
77872;SDS011;67068;52.116;4.440;2024-03-06T08:46:01;21.10;;;13.60;;
77872;SDS011;67068;52.116;4.440;2024-03-06T08:48:26;22.97;;;12.87;;
77872;SDS011;67068;52.116;4.440;2024-03-06T08:50:51;20.47;;;11.13;;
77872;SDS011;67068;52.116;4.440;2024-03-06T08:53:17;20.40;;;12.82;;
77872;SDS011;67068;52.116;4.440;2024-03-06T08:55:42;21.83;;;13.23;;
77872;SDS011;67068;52.116;4.440;2024-03-06T08:58:08;19.67;;;12.47;;
77872;SDS011;67068;52.116;4.440;2024-03-06T09:00:34;21.00;;;13.13;;
77872;SDS011;67068;52.116;4.440;2024-03-06T09:02:59;21.88;;;13.10;;
77872;SDS011;67068;52.116;4.440;2024-03-06T09:05:25;23.88;;;13.98;;
77872;SDS011;67068;52.116;4.440;2024-03-06T09:07:50;24.50;;;14.37;;
77872;SDS011;67068;52.116;4.440;2024-03-06T09:10:15;23.50;;;13.43;;
77872;SDS011;67068;52.116;4.440;2024-03-06T09:12:40;22.37;;;13.77;;
77872;SDS011;67068;52.116;4.440;2024-03-06T09:15:06;22.73;;;14.10;;
77872;SDS011;67068;52.116;4.440;2024-03-06T09:17:36;21.20;;;13.00;;
77872;SDS011;67068;52.116;4.440;2024-03-06T09:20:01;22.43;;;13.67;;
77872;SDS011;67068;52.116;4.440;2024-03-06T09:22:35;22.70;;;13.55;;
77872;SDS011;67068;52.116;4.440;2024-03-06T09:25:01;20.50;;;13.02;;
77872;SDS011;67068;52.116;4.440;2024-03-06T09:27:26;21.65;;;12.02;;
77872;SDS011;67068;52.116;4.440;2024-03-06T09:29:52;20.80;;;12.30;;
77872;SDS011;67068;52.116;4.440;2024-03-06T09:32:17;24.33;;;13.83;;
77872;SDS011;67068;52.116;4.440;2024-03-06T09:34:44;19.70;;;11.05;;
77872;SDS011;67068;52.116;4.440;2024-03-06T09:37:09;23.42;;;14.82;;
77872;SDS011;67068;52.116;4.440;2024-03-06T09:39:34;22.57;;;14.07;;
77872;SDS011;67068;52.116;4.440;2024-03-06T09:42:00;24.45;;;14.52;;
77872;SDS011;67068;52.116;4.440;2024-03-06T09:44:26;20.70;;;13.43;;
77872;SDS011;67068;52.116;4.440;2024-03-06T09:46:51;21.00;;;11.80;;
77872;SDS011;67068;52.116;4.440;2024-03-06T09:49:18;21.70;;;13.23;;
77872;SDS011;67068;52.116;4.440;2024-03-06T09:51:47;21.13;;;13.65;;
77872;SDS011;67068;52.116;4.440;2024-03-06T09:54:14;20.70;;;13.38;;
77872;SDS011;67068;52.116;4.440;2024-03-06T09:56:40;20.55;;;13.45;;
77872;SDS011;67068;52.116;4.440;2024-03-06T09:59:06;21.33;;;13.70;;
77872;SDS011;67068;52.116;4.440;2024-03-06T10:01:31;21.03;;;12.10;;
77872;SDS011;67068;52.116;4.440;2024-03-06T10:03:57;21.20;;;14.82;;
77872;SDS011;67068;52.116;4.440;2024-03-06T10:06:22;19.17;;;13.33;;
77872;SDS011;67068;52.116;4.440;2024-03-06T10:08:48;21.40;;;11.80;;
77872;SDS011;67068;52.116;4.440;2024-03-06T10:11:14;20.33;;;12.15;;
77872;SDS011;67068;52.116;4.440;2024-03-06T10:13:39;18.53;;;10.90;;
77872;SDS011;67068;52.116;4.440;2024-03-06T10:16:04;20.30;;;11.13;;
77872;SDS011;67068;52.116;4.440;2024-03-06T10:18:36;19.90;;;10.93;;
77872;SDS011;67068;52.116;4.440;2024-03-06T10:21:04;20.27;;;11.45;;
77872;SDS011;67068;52.116;4.440;2024-03-06T10:23:30;18.38;;;10.75;;
77872;SDS011;67068;52.116;4.440;2024-03-06T10:25:56;20.60;;;11.32;;
77872;SDS011;67068;52.116;4.440;2024-03-06T10:28:22;18.47;;;11.33;;
77872;SDS011;67068;52.116;4.440;2024-03-06T10:30:50;21.15;;;12.15;;
77872;SDS011;67068;52.116;4.440;2024-03-06T10:33:17;21.02;;;12.13;;
77872;SDS011;67068;52.116;4.440;2024-03-06T10:35:46;19.70;;;10.48;;
77872;SDS011;67068;52.116;4.440;2024-03-06T10:38:13;22.55;;;11.07;;
77872;SDS011;67068;52.116;4.440;2024-03-06T10:40:39;19.67;;;11.57;;
77872;SDS011;67068;52.116;4.440;2024-03-06T10:43:06;20.75;;;11.80;;
77872;SDS011;67068;52.116;4.440;2024-03-06T10:45:35;20.20;;;11.60;;
77872;SDS011;67068;52.116;4.440;2024-03-06T10:48:03;20.90;;;12.40;;
77872;SDS011;67068;52.116;4.440;2024-03-06T10:50:29;22.02;;;12.13;;
77872;SDS011;67068;52.116;4.440;2024-03-06T10:52:54;18.55;;;10.23;;
77872;SDS011;67068;52.116;4.440;2024-03-06T10:55:21;18.95;;;11.30;;
77872;SDS011;67068;52.116;4.440;2024-03-06T10:57:46;17.77;;;10.57;;
77872;SDS011;67068;52.116;4.440;2024-03-06T11:00:13;18.73;;;11.20;;
77872;SDS011;67068;52.116;4.440;2024-03-06T11:02:44;19.33;;;11.50;;
77872;SDS011;67068;52.116;4.440;2024-03-06T11:05:14;18.52;;;12.73;;
77872;SDS011;67068;52.116;4.440;2024-03-06T11:07:40;20.00;;;10.85;;
77872;SDS011;67068;52.116;4.440;2024-03-06T11:10:05;16.75;;;10.05;;
77872;SDS011;67068;52.116;4.440;2024-03-06T11:12:33;17.30;;;9.95;;
77872;SDS011;67068;52.116;4.440;2024-03-06T11:15:00;18.55;;;9.45;;
77872;SDS011;67068;52.116;4.440;2024-03-06T11:17:28;13.00;;;6.63;;
77872;SDS011;67068;52.116;4.440;2024-03-06T11:25:38;14.20;;;7.07;;
77872;SDS011;67068;52.116;4.440;2024-03-06T11:28:04;16.00;;;7.57;;
77872;SDS011;67068;52.116;4.440;2024-03-06T11:30:30;14.32;;;8.27;;
77872;SDS011;67068;52.116;4.440;2024-03-06T11:32:59;17.33;;;9.18;;
77872;SDS011;67068;52.116;4.440;2024-03-06T11:35:27;17.00;;;8.57;;
77872;SDS011;67068;52.116;4.440;2024-03-06T11:37:52;15.40;;;6.55;;
77872;SDS011;67068;52.116;4.440;2024-03-06T11:40:25;13.82;;;6.55;;
77872;SDS011;67068;52.116;4.440;2024-03-06T11:42:50;15.55;;;7.13;;
77872;SDS011;67068;52.116;4.440;2024-03-06T11:45:17;14.38;;;6.90;;
77872;SDS011;67068;52.116;4.440;2024-03-06T11:48:00;8.60;;;4.20;;
77872;SDS011;67068;52.116;4.440;2024-03-06T11:50:25;12.93;;;6.03;;
77872;SDS011;67068;52.116;4.440;2024-03-06T11:52:51;11.27;;;4.95;;
77872;SDS011;67068;52.116;4.440;2024-03-06T11:55:16;14.80;;;7.07;;
77872;SDS011;67068;52.116;4.440;2024-03-06T11:57:42;13.33;;;6.40;;
77872;SDS011;67068;52.116;4.440;2024-03-06T12:00:07;13.63;;;7.27;;
77872;SDS011;67068;52.116;4.440;2024-03-06T12:02:33;14.63;;;6.60;;
77872;SDS011;67068;52.116;4.440;2024-03-06T12:05:01;14.98;;;7.50;;
77872;SDS011;67068;52.116;4.440;2024-03-06T12:07:28;12.55;;;6.03;;
77872;SDS011;67068;52.116;4.440;2024-03-06T12:09:53;14.53;;;6.93;;
77872;SDS011;67068;52.116;4.440;2024-03-06T12:12:18;10.25;;;4.10;;
77872;SDS011;67068;52.116;4.440;2024-03-06T12:14:43;15.20;;;7.30;;
77872;SDS011;67068;52.116;4.440;2024-03-06T12:17:20;13.68;;;7.10;;
77872;SDS011;67068;52.116;4.440;2024-03-06T12:19:45;13.23;;;6.77;;
77872;SDS011;67068;52.116;4.440;2024-03-06T12:22:11;12.77;;;6.00;;
77872;SDS011;67068;52.116;4.440;2024-03-06T12:24:36;12.77;;;5.90;;
77872;SDS011;67068;52.116;4.440;2024-03-06T12:27:03;12.52;;;6.30;;
77872;SDS011;67068;52.116;4.440;2024-03-06T12:29:29;15.45;;;6.20;;
77872;SDS011;67068;52.116;4.440;2024-03-06T12:31:58;15.20;;;8.30;;
77872;SDS011;67068;52.116;4.440;2024-03-06T12:34:23;15.27;;;7.32;;
77872;SDS011;67068;52.116;4.440;2024-03-06T12:36:48;13.13;;;6.97;;
77872;SDS011;67068;52.116;4.440;2024-03-06T12:39:15;14.93;;;7.07;;
77872;SDS011;67068;52.116;4.440;2024-03-06T12:41:43;12.95;;;6.43;;
77872;SDS011;67068;52.116;4.440;2024-03-06T12:44:08;13.60;;;6.10;;
77872;SDS011;67068;52.116;4.440;2024-03-06T12:46:33;12.57;;;5.90;;
77872;SDS011;67068;52.116;4.440;2024-03-06T12:48:58;11.83;;;5.63;;
77872;SDS011;67068;52.116;4.440;2024-03-06T12:51:24;11.80;;;5.67;;
77872;SDS011;67068;52.116;4.440;2024-03-06T12:53:49;14.93;;;6.97;;
77872;SDS011;67068;52.116;4.440;2024-03-06T12:56:14;11.98;;;5.70;;
77872;SDS011;67068;52.116;4.440;2024-03-06T12:58:40;11.55;;;5.00;;
77872;SDS011;67068;52.116;4.440;2024-03-06T13:01:05;12.17;;;5.37;;
77872;SDS011;67068;52.116;4.440;2024-03-06T13:03:30;11.67;;;4.77;;
77872;SDS011;67068;52.116;4.440;2024-03-06T13:05:56;11.82;;;5.35;;
77872;SDS011;67068;52.116;4.440;2024-03-06T13:08:21;12.50;;;5.13;;
77872;SDS011;67068;52.116;4.440;2024-03-06T13:10:46;11.70;;;5.80;;
77872;SDS011;67068;52.116;4.440;2024-03-06T13:13:12;14.02;;;5.78;;
77872;SDS011;67068;52.116;4.440;2024-03-06T13:15:37;12.17;;;5.57;;
77872;SDS011;67068;52.116;4.440;2024-03-06T13:18:03;12.67;;;5.17;;
77872;SDS011;67068;52.116;4.440;2024-03-06T13:20:29;10.98;;;5.35;;
77872;SDS011;67068;52.116;4.440;2024-03-06T13:22:54;10.32;;;4.97;;
77872;SDS011;67068;52.116;4.440;2024-03-06T13:25:19;10.65;;;4.88;;
77872;SDS011;67068;52.116;4.440;2024-03-06T13:27:44;11.87;;;4.93;;
77872;SDS011;67068;52.116;4.440;2024-03-06T13:30:10;10.67;;;5.10;;
77872;SDS011;67068;52.116;4.440;2024-03-06T13:32:37;10.50;;;4.75;;
77872;SDS011;67068;52.116;4.440;2024-03-06T13:35:02;11.33;;;4.90;;
77872;SDS011;67068;52.116;4.440;2024-03-06T13:37:28;11.10;;;5.10;;
77872;SDS011;67068;52.116;4.440;2024-03-06T13:39:53;10.53;;;4.67;;
77872;SDS011;67068;52.116;4.440;2024-03-06T13:42:23;11.20;;;4.90;;
77872;SDS011;67068;52.116;4.440;2024-03-06T13:44:48;10.90;;;4.70;;
77872;SDS011;67068;52.116;4.440;2024-03-06T13:47:14;11.80;;;5.00;;
77872;SDS011;67068;52.116;4.440;2024-03-06T13:49:41;11.63;;;5.50;;
77872;SDS011;67068;52.116;4.440;2024-03-06T13:52:07;12.07;;;4.50;;
77872;SDS011;67068;52.116;4.440;2024-03-06T13:54:35;11.95;;;4.15;;
77872;SDS011;67068;52.116;4.440;2024-03-06T13:57:00;10.68;;;5.03;;
77872;SDS011;67068;52.116;4.440;2024-03-06T13:59:30;9.85;;;4.70;;
77872;SDS011;67068;52.116;4.440;2024-03-06T14:01:55;10.13;;;4.20;;
77872;SDS011;67068;52.116;4.440;2024-03-06T14:04:20;9.77;;;4.07;;
77872;SDS011;67068;52.116;4.440;2024-03-06T14:06:46;11.00;;;4.67;;
77872;SDS011;67068;52.116;4.440;2024-03-06T14:09:14;20.33;;;12.47;;
77872;SDS011;67068;52.116;4.440;2024-03-06T14:11:39;31.52;;;18.63;;
77872;SDS011;67068;52.116;4.440;2024-03-06T14:14:05;30.38;;;18.52;;
77872;SDS011;67068;52.116;4.440;2024-03-06T14:16:30;29.55;;;16.65;;
77872;SDS011;67068;52.116;4.440;2024-03-06T14:18:55;28.97;;;17.13;;
77872;SDS011;67068;52.116;4.440;2024-03-06T14:21:21;29.00;;;16.57;;